createdAt,value
2019-02-21T00:00:43.911Z,6.20
2019-02-21T00:03:12.799Z,6.20
2019-02-21T00:05:41.679Z,6.20
2019-02-21T00:08:10.579Z,6.30
2019-02-21T00:10:39.408Z,6.30
2019-02-21T00:13:08.193Z,6.30
2019-02-21T00:15:37.194Z,6.20
2019-02-21T00:18:06.364Z,6.20
2019-02-21T00:20:35.176Z,6.20
2019-02-21T00:23:03.962Z,6.30
2019-02-21T00:25:35.684Z,6.30
2019-02-21T00:28:04.579Z,6.30
2019-02-21T00:30:35.508Z,6.30
2019-02-21T00:33:04.140Z,6.40
2019-02-21T00:35:32.949Z,6.40
2019-02-21T00:38:01.802Z,6.50
2019-02-21T00:40:30.617Z,6.40
2019-02-21T00:42:59.488Z,6.50
2019-02-21T00:45:28.405Z,6.50
2019-02-21T00:47:57.198Z,6.50
2019-02-21T00:50:26.053Z,6.60
2019-02-21T00:52:55.193Z,6.60
2019-02-21T00:55:24.098Z,6.70
2019-02-21T00:57:52.986Z,6.70
2019-02-21T01:00:22.022Z,6.70
2019-02-21T01:02:50.828Z,6.70
2019-02-21T01:05:19.692Z,6.70
2019-02-21T01:07:48.591Z,6.70
2019-02-21T01:10:17.526Z,6.70
2019-02-21T01:12:46.380Z,6.60
2019-02-21T01:15:15.222Z,6.60
2019-02-21T01:17:44.124Z,6.60
2019-02-21T01:20:12.967Z,6.50
2019-02-21T01:22:41.784Z,6.50
2019-02-21T01:25:10.667Z,6.50
2019-02-21T01:27:39.568Z,6.60
2019-02-21T01:30:08.545Z,6.50
2019-02-21T01:32:37.434Z,6.50
2019-02-21T01:35:07.154Z,6.50
2019-02-21T01:37:36.017Z,6.40
2019-02-21T01:40:05.374Z,6.50
2019-02-21T01:42:34.450Z,6.50
2019-02-21T01:45:04.667Z,6.50
2019-02-21T01:47:33.580Z,6.50
2019-02-21T01:50:02.412Z,6.60
2019-02-21T01:52:31.518Z,6.50
2019-02-21T01:55:00.420Z,6.50
2019-02-21T01:57:29.393Z,6.50
2019-02-21T01:59:58.305Z,6.50
2019-02-21T02:02:27.217Z,6.50
2019-02-21T02:04:56.126Z,6.50
2019-02-21T02:07:25.921Z,6.40
2019-02-21T02:09:54.837Z,6.40
2019-02-21T02:12:23.828Z,6.40
2019-02-21T02:14:52.632Z,6.30
2019-02-21T02:17:21.408Z,6.30
2019-02-21T02:19:50.256Z,6.30
2019-02-21T02:22:19.389Z,6.20
2019-02-21T02:24:48.201Z,6.20
2019-02-21T02:27:17.175Z,6.10
2019-02-21T02:29:46.024Z,6.10
2019-02-21T02:32:14.877Z,6.00
2019-02-21T02:34:43.702Z,6.00
2019-02-21T02:37:12.757Z,6.00
2019-02-21T02:39:41.821Z,6.00
2019-02-21T02:42:11.957Z,5.90
2019-02-21T02:44:40.773Z,6.00
2019-02-21T02:47:09.725Z,6.00
2019-02-21T02:49:38.708Z,5.90
2019-02-21T02:52:07.597Z,5.90
2019-02-21T02:54:36.405Z,6.00
2019-02-21T02:57:05.532Z,5.90
2019-02-21T02:59:40.637Z,5.90
2019-02-21T03:02:05.106Z,5.90
2019-02-21T03:04:34.059Z,5.90
2019-02-21T03:07:02.932Z,5.80
2019-02-21T03:09:31.913Z,5.80
2019-02-21T03:12:00.693Z,5.80
2019-02-21T03:14:29.743Z,5.80
2019-02-21T03:16:58.537Z,5.80
2019-02-21T03:19:27.365Z,5.80
2019-02-21T03:21:56.219Z,5.80
2019-02-21T03:24:25.117Z,5.80
2019-02-21T03:26:53.944Z,5.80
2019-02-21T03:29:22.860Z,5.80
2019-02-21T03:31:55.051Z,5.80
2019-02-21T03:34:22.222Z,5.90
2019-02-21T03:36:51.028Z,5.90
2019-02-21T03:39:20.085Z,5.90
2019-02-21T03:41:48.886Z,5.90
2019-02-21T03:44:17.678Z,5.90
2019-02-21T03:46:46.689Z,5.90
2019-02-21T03:49:15.496Z,5.80
2019-02-21T03:51:44.391Z,5.80
2019-02-21T03:54:13.348Z,5.80
2019-02-21T03:56:42.224Z,5.90
2019-02-21T03:59:11.101Z,5.80
2019-02-21T04:01:40.054Z,5.80
2019-02-21T04:04:09.140Z,5.80
2019-02-21T04:06:38.100Z,5.80
2019-02-21T04:09:08.548Z,5.80
2019-02-21T04:11:37.449Z,5.80
2019-02-21T04:14:06.472Z,5.80
2019-02-21T04:16:35.387Z,5.80
2019-02-21T04:19:04.285Z,5.80
2019-02-21T04:21:33.185Z,5.70
2019-02-21T04:24:02.012Z,5.70
2019-02-21T04:26:30.883Z,5.70
2019-02-21T04:28:59.687Z,5.70
2019-02-21T04:31:28.633Z,5.60
2019-02-21T04:33:57.453Z,5.60
2019-02-21T04:36:26.263Z,5.70
2019-02-21T04:38:55.072Z,5.60
2019-02-21T04:41:24.193Z,5.70
2019-02-21T04:43:52.999Z,5.80
2019-02-21T04:46:21.797Z,5.70
2019-02-21T04:48:50.594Z,5.70
2019-02-21T04:51:19.754Z,5.60
2019-02-21T04:53:48.543Z,5.60
2019-02-21T04:56:17.350Z,5.60
2019-02-21T04:58:46.148Z,5.60
2019-02-21T05:01:15.051Z,5.60
2019-02-21T05:03:43.904Z,5.70
2019-02-21T05:06:12.792Z,5.60
2019-02-21T05:08:42.029Z,5.70
2019-02-21T05:11:11.401Z,5.70
2019-02-21T05:13:40.205Z,5.60
2019-02-21T05:16:09.048Z,5.70
2019-02-21T05:18:38.047Z,5.70
2019-02-21T05:21:06.865Z,5.70
2019-02-21T05:23:36.772Z,5.80
2019-02-21T05:26:06.440Z,5.90
2019-02-21T05:28:41.163Z,5.90
2019-02-21T05:31:14.460Z,5.90
2019-02-21T05:33:53.719Z,5.90
2019-02-21T05:36:40.264Z,5.90
2019-02-21T05:39:17.574Z,5.90
2019-02-21T05:42:11.629Z,5.90
2019-02-21T05:44:59.554Z,5.90
2019-02-21T05:47:43.103Z,6.00
2019-02-21T05:50:31.095Z,6.00
2019-02-21T05:53:06.289Z,6.00
2019-02-21T05:55:44.168Z,6.00
2019-02-21T05:58:24.668Z,6.00
2019-02-21T06:01:02.378Z,6.00
2019-02-21T06:03:48.883Z,6.00
2019-02-21T06:06:35.691Z,5.90
2019-02-21T06:09:12.938Z,5.90
2019-02-21T06:12:03.860Z,6.00
2019-02-21T06:14:57.849Z,5.90
2019-02-21T06:17:44.767Z,5.90
2019-02-21T06:20:46.925Z,5.90
2019-02-21T06:23:25.187Z,5.90
2019-02-21T06:26:16.313Z,5.90
2019-02-21T06:29:13.169Z,5.90
2019-02-21T06:31:42.246Z,5.90
2019-02-21T06:34:11.047Z,5.90
2019-02-21T06:36:40.834Z,5.90
2019-02-21T06:39:09.780Z,5.90
2019-02-21T06:41:38.612Z,6.00
2019-02-21T06:44:07.427Z,6.00
2019-02-21T06:46:36.248Z,6.00
2019-02-21T06:49:05.222Z,6.10
2019-02-21T06:51:34.069Z,6.10
2019-02-21T06:54:03.005Z,6.10
2019-02-21T06:56:31.823Z,6.10
2019-02-21T06:59:00.641Z,6.20
2019-02-21T07:01:29.795Z,6.20
2019-02-21T07:03:58.685Z,6.20
2019-02-21T07:06:31.959Z,6.20
2019-02-21T07:08:59.873Z,6.40
2019-02-21T07:11:29.559Z,6.30
2019-02-21T07:13:58.527Z,6.40
2019-02-21T07:16:27.457Z,6.40
2019-02-21T07:18:56.272Z,6.50
2019-02-21T07:21:25.061Z,6.50
2019-02-21T07:23:53.861Z,6.50
2019-02-21T07:26:22.696Z,6.60
2019-02-21T07:28:52.016Z,6.60
2019-02-21T07:31:28.626Z,6.60
2019-02-21T07:33:51.393Z,6.60
2019-02-21T07:36:20.228Z,6.70
2019-02-21T07:38:49.069Z,6.70
2019-02-21T07:41:18.783Z,6.90
2019-02-21T07:43:47.725Z,6.90
2019-02-21T07:46:17.369Z,7.00
2019-02-21T07:48:46.236Z,7.10
2019-02-21T07:51:15.025Z,7.10
2019-02-21T07:53:43.944Z,7.10
2019-02-21T07:56:12.859Z,7.10
2019-02-21T07:58:41.740Z,7.20
2019-02-21T08:01:10.676Z,7.20
2019-02-21T08:03:44.291Z,7.20
2019-02-21T08:06:10.476Z,7.20
2019-02-21T08:08:39.345Z,7.30
2019-02-21T08:11:08.765Z,7.30
2019-02-21T08:13:37.608Z,7.40
2019-02-21T08:16:06.570Z,7.40
2019-02-21T08:18:35.368Z,7.40
2019-02-21T08:21:04.469Z,7.50
2019-02-21T08:23:33.356Z,7.50
2019-02-21T08:26:02.184Z,7.50
2019-02-21T08:28:31.008Z,7.60
2019-02-21T08:30:59.886Z,7.60
2019-02-21T08:33:32.388Z,7.70
2019-02-21T08:36:01.184Z,7.70
2019-02-21T08:38:30.293Z,7.70
2019-02-21T08:40:59.130Z,7.80
2019-02-21T08:43:28.012Z,7.90
2019-02-21T08:45:57.702Z,7.90
2019-02-21T08:48:26.721Z,7.90
2019-02-21T08:50:55.613Z,8.00
2019-02-21T08:53:24.505Z,8.20
2019-02-21T08:55:58.527Z,8.20
2019-02-21T08:58:27.392Z,8.40
2019-02-21T09:00:56.365Z,8.50
2019-02-21T09:03:25.307Z,8.50
2019-02-21T09:05:55.510Z,8.60
2019-02-21T09:08:33.100Z,8.60
2019-02-21T09:10:55.214Z,8.60
2019-02-21T09:13:24.208Z,8.70
2019-02-21T09:15:55.745Z,8.70
2019-02-21T09:18:26.384Z,8.80
2019-02-21T09:20:55.200Z,8.90
2019-02-21T09:23:24.004Z,8.90
2019-02-21T09:25:52.919Z,9.00
2019-02-21T09:28:21.813Z,9.10
2019-02-21T09:30:50.731Z,9.00
2019-02-21T09:33:21.312Z,9.00
2019-02-21T09:35:50.479Z,9.10
2019-02-21T09:38:19.377Z,9.20
2019-02-21T09:40:48.165Z,9.30
2019-02-21T09:43:17.226Z,9.30
2019-02-21T09:45:46.016Z,9.30
2019-02-21T09:48:14.812Z,9.30
2019-02-21T09:50:43.618Z,9.20
2019-02-21T09:53:12.592Z,9.20
2019-02-21T09:55:41.412Z,9.20
2019-02-21T09:58:10.255Z,9.20
2019-02-21T10:00:39.115Z,9.10
2019-02-21T10:03:07.885Z,9.10
2019-02-21T10:05:36.702Z,9.20
2019-02-21T10:08:05.825Z,9.20
2019-02-21T10:10:34.676Z,9.20
2019-02-21T10:13:03.497Z,9.20
2019-02-21T10:15:32.329Z,9.30
2019-02-21T10:18:01.225Z,9.40
2019-02-21T10:20:30.021Z,9.50
2019-02-21T10:22:58.817Z,9.60
2019-02-21T10:25:27.955Z,9.70
2019-02-21T10:27:58.836Z,9.80
2019-02-21T10:30:27.609Z,9.90
2019-02-21T10:32:56.419Z,9.90
2019-02-21T10:35:25.361Z,9.90
2019-02-21T10:37:54.245Z,10.00
2019-02-21T10:40:23.057Z,10.00
2019-02-21T10:42:51.989Z,10.00
2019-02-21T10:45:21.417Z,10.00
2019-02-21T10:47:50.426Z,9.90
2019-02-21T10:50:19.641Z,9.80
2019-02-21T10:52:48.591Z,9.80
2019-02-21T10:55:18.620Z,9.70
2019-02-21T10:57:47.486Z,9.60
2019-02-21T11:00:18.919Z,9.50
2019-02-21T11:02:48.104Z,9.50
2019-02-21T11:05:16.965Z,9.50
2019-02-21T11:07:45.880Z,9.50
2019-02-21T11:10:18.765Z,9.60
2019-02-21T11:12:46.648Z,9.60
2019-02-21T11:15:15.845Z,9.70
2019-02-21T11:17:44.680Z,9.80
2019-02-21T11:20:15.075Z,9.80
2019-02-21T11:22:43.892Z,9.90
2019-02-21T11:25:12.867Z,10.00
2019-02-21T11:27:41.796Z,10.00
2019-02-21T11:30:15.994Z,10.10
2019-02-21T11:32:44.895Z,10.10
2019-02-21T11:35:14.460Z,10.10
2019-02-21T11:37:46.872Z,10.10
2019-02-21T11:40:14.933Z,10.20
2019-02-21T11:42:43.782Z,10.30
2019-02-21T11:45:14.432Z,10.40
2019-02-21T11:47:43.371Z,10.40
2019-02-21T11:50:13.681Z,10.40
2019-02-21T11:52:42.689Z,10.50
2019-02-21T11:55:13.014Z,10.50
2019-02-21T11:57:41.958Z,10.60
2019-02-21T12:00:14.245Z,10.70
2019-02-21T12:02:43.174Z,10.90
2019-02-21T12:05:17.654Z,10.80
2019-02-21T12:07:43.058Z,10.90
2019-02-21T12:10:12.029Z,10.90
2019-02-21T12:12:41.075Z,11.00
2019-02-21T12:15:10.699Z,11.10
2019-02-21T12:17:42.558Z,11.10
2019-02-21T12:20:12.069Z,11.10
2019-02-21T12:22:40.878Z,11.20
2019-02-21T12:25:11.380Z,11.30
2019-02-21T12:27:40.232Z,11.30
2019-02-21T12:30:11.340Z,11.40
2019-02-21T12:32:40.233Z,11.50
2019-02-21T12:35:09.232Z,11.60
2019-02-21T12:37:38.491Z,11.70
2019-02-21T12:40:09.072Z,11.60
2019-02-21T12:42:37.904Z,11.70
2019-02-21T12:45:09.120Z,11.90
2019-02-21T12:47:49.033Z,12.00
2019-02-21T12:50:09.502Z,12.20
2019-02-21T12:52:38.457Z,12.30
2019-02-21T12:55:08.322Z,12.50
2019-02-21T12:57:37.190Z,12.60
2019-02-21T13:00:08.270Z,12.60
2019-02-21T13:02:37.243Z,12.40
2019-02-21T13:05:06.322Z,12.30
2019-02-21T13:07:35.486Z,12.40
2019-02-21T13:10:05.246Z,12.40
2019-02-21T13:12:34.390Z,12.20
2019-02-21T13:15:03.380Z,12.30
2019-02-21T13:17:32.304Z,12.20
2019-02-21T13:20:01.341Z,12.20
2019-02-21T13:22:30.373Z,12.10
2019-02-21T13:24:59.238Z,12.10
2019-02-21T13:27:28.100Z,12.00
2019-02-21T13:29:56.941Z,12.00
2019-02-21T13:32:25.740Z,12.00
2019-02-21T13:34:54.552Z,11.90
2019-02-21T13:37:28.917Z,11.90
2019-02-21T13:39:54.049Z,11.90
2019-02-21T13:42:23.251Z,11.90
2019-02-21T13:44:52.176Z,11.80
2019-02-21T13:47:21.004Z,11.80
2019-02-21T13:49:49.868Z,11.80
2019-02-21T13:52:18.709Z,11.80
2019-02-21T13:54:47.583Z,11.80
2019-02-21T13:57:16.496Z,11.90
2019-02-21T13:59:45.601Z,11.90
2019-02-21T14:02:15.338Z,11.90
2019-02-21T14:04:44.477Z,11.90
2019-02-21T14:07:13.288Z,12.00
2019-02-21T14:09:42.488Z,12.00
2019-02-21T14:12:11.380Z,12.00
2019-02-21T14:14:42.404Z,12.00
2019-02-21T14:17:10.865Z,12.00
2019-02-21T14:19:41.769Z,11.90
2019-02-21T14:22:10.604Z,11.90
2019-02-21T14:24:39.718Z,11.90
2019-02-21T14:27:08.982Z,11.90
2019-02-21T14:29:39.467Z,11.90
2019-02-21T14:32:08.980Z,11.90
2019-02-21T14:34:37.790Z,11.90
2019-02-21T14:37:06.645Z,11.90
2019-02-21T14:39:35.532Z,11.90
2019-02-21T14:42:04.604Z,11.80
2019-02-21T14:44:33.636Z,11.80
2019-02-21T14:47:02.423Z,11.70
2019-02-21T14:49:31.344Z,11.70
2019-02-21T14:52:01.886Z,11.70
2019-02-21T14:54:30.935Z,11.70
2019-02-21T14:56:59.737Z,11.70
2019-02-21T14:59:28.614Z,11.70
2019-02-21T15:01:57.612Z,11.70
2019-02-21T15:04:26.692Z,11.70
2019-02-21T15:06:55.524Z,11.60
2019-02-21T15:09:24.329Z,11.40
2019-02-21T15:11:53.309Z,11.30
2019-02-21T15:14:22.192Z,11.30
2019-02-21T15:16:51.010Z,11.30
2019-02-21T15:19:19.848Z,11.20
2019-02-21T15:21:48.997Z,11.10
2019-02-21T15:24:17.840Z,11.10
2019-02-21T15:26:47.085Z,11.00
2019-02-21T15:29:15.907Z,10.90
2019-02-21T15:31:44.788Z,10.90
2019-02-21T15:34:13.633Z,10.90
2019-02-21T15:36:42.583Z,10.80
2019-02-21T15:39:11.773Z,10.80
2019-02-21T15:41:40.772Z,10.70
2019-02-21T15:44:09.780Z,10.70
2019-02-21T15:46:38.670Z,10.70
2019-02-21T15:49:07.603Z,10.60
2019-02-21T15:51:36.564Z,10.70
2019-02-21T15:54:05.377Z,10.60
2019-02-21T15:56:34.434Z,10.60
2019-02-21T15:59:03.349Z,10.60
2019-02-21T16:01:32.172Z,10.50
2019-02-21T16:04:01.055Z,10.50
2019-02-21T16:06:29.980Z,10.50
2019-02-21T16:08:58.855Z,10.50
2019-02-21T16:11:27.725Z,10.50
2019-02-21T16:14:03.334Z,10.50
2019-02-21T16:16:28.246Z,10.40
2019-02-21T16:18:58.851Z,10.40
2019-02-21T16:21:27.749Z,10.40
2019-02-21T16:23:56.577Z,10.30
2019-02-21T16:26:25.397Z,10.40
2019-02-21T16:28:54.484Z,10.40
2019-02-21T16:31:23.553Z,10.30
2019-02-21T16:33:52.375Z,10.30
2019-02-21T16:36:21.170Z,10.30
2019-02-21T16:38:49.996Z,10.30
2019-02-21T16:41:18.808Z,10.20
2019-02-21T16:43:47.705Z,10.20
2019-02-21T16:46:16.525Z,10.20
2019-02-21T16:48:45.443Z,10.20
2019-02-21T16:51:14.255Z,10.20
2019-02-21T16:53:43.133Z,10.20
2019-02-21T16:56:13.431Z,10.20
2019-02-21T16:58:43.084Z,10.10
2019-02-21T17:01:12.012Z,10.10
2019-02-21T17:03:40.869Z,10.10
2019-02-21T17:06:10.091Z,10.10
2019-02-21T17:08:38.968Z,10.10
2019-02-21T17:11:08.341Z,10.00
2019-02-21T17:13:37.148Z,10.00
2019-02-21T17:16:06.207Z,10.00
2019-02-21T17:18:35.150Z,10.00
2019-02-21T17:21:04.121Z,10.00
2019-02-21T17:23:36.361Z,10.00
2019-02-21T17:26:05.370Z,10.00
2019-02-21T17:28:36.886Z,10.00
2019-02-21T17:31:05.875Z,10.00
2019-02-21T17:33:37.287Z,10.00
2019-02-21T17:36:06.311Z,10.00
2019-02-21T17:38:35.553Z,10.00
2019-02-21T17:41:04.484Z,9.90
2019-02-21T17:43:33.305Z,9.90
2019-02-21T17:46:02.178Z,9.90
2019-02-21T17:48:31.001Z,9.80
2019-02-21T17:51:00.005Z,9.80
2019-02-21T17:53:28.854Z,9.90
2019-02-21T17:55:57.710Z,9.90
2019-02-21T17:58:26.649Z,9.80
2019-02-21T18:00:55.528Z,9.80
2019-02-21T18:03:24.441Z,9.80
2019-02-21T18:05:55.907Z,9.80
2019-02-21T18:08:23.760Z,9.80
2019-02-21T18:10:52.539Z,9.80
2019-02-21T18:13:21.429Z,9.80
2019-02-21T18:15:50.351Z,9.80
2019-02-21T18:18:19.561Z,9.80
2019-02-21T18:20:48.421Z,9.80
2019-02-21T18:23:17.369Z,9.80
2019-02-21T18:25:50.113Z,9.80
2019-02-21T18:28:19.072Z,9.80
2019-02-21T18:30:47.999Z,9.80
2019-02-21T18:33:20.172Z,9.80
2019-02-21T18:35:49.041Z,9.70
2019-02-21T18:38:17.809Z,9.70
2019-02-21T18:40:47.332Z,9.70
2019-02-21T18:43:16.372Z,9.70
2019-02-21T18:45:45.320Z,9.70
2019-02-21T18:48:14.248Z,9.70
2019-02-21T18:50:43.212Z,9.80
2019-02-21T18:53:12.084Z,9.80
2019-02-21T18:55:40.896Z,9.70
2019-02-21T18:58:09.781Z,9.70
2019-02-21T19:00:38.570Z,9.70
2019-02-21T19:03:07.496Z,9.70
2019-02-21T19:05:36.566Z,9.70
2019-02-21T19:08:06.042Z,9.70
2019-02-21T19:10:34.958Z,9.70
2019-02-21T19:13:04.117Z,9.70
2019-02-21T19:15:33.373Z,9.70
2019-02-21T19:18:02.304Z,9.70
2019-02-21T19:20:31.395Z,9.70
2019-02-21T19:23:00.286Z,9.70
2019-02-21T19:25:29.191Z,9.70
2019-02-21T19:27:58.259Z,9.70
2019-02-21T19:30:33.464Z,9.70
2019-02-21T19:33:02.349Z,9.70
2019-02-21T19:35:31.329Z,9.80
2019-02-21T19:38:10.028Z,9.80
2019-02-21T19:40:31.006Z,9.80
2019-02-21T19:42:59.860Z,9.80
2019-02-21T19:45:28.952Z,9.80
2019-02-21T19:47:57.793Z,9.80
2019-02-21T19:50:26.914Z,9.80
2019-02-21T19:52:55.777Z,9.80
2019-02-21T19:55:24.696Z,9.80
2019-02-21T19:57:53.560Z,9.80
2019-02-21T20:00:24.055Z,9.80
2019-02-21T20:02:53.207Z,9.80
2019-02-21T20:05:22.303Z,9.80
2019-02-21T20:07:51.208Z,9.80
2019-02-21T20:10:20.292Z,9.80
2019-02-21T20:12:49.677Z,9.80
2019-02-21T20:15:18.618Z,9.80
2019-02-21T20:17:47.445Z,9.80
2019-02-21T20:20:17.081Z,9.80
2019-02-21T20:22:46.063Z,9.80
2019-02-21T20:25:14.945Z,9.80
2019-02-21T20:27:43.835Z,9.80
2019-02-21T20:30:14.396Z,9.80
2019-02-21T20:32:43.482Z,9.80
2019-02-21T20:35:12.660Z,9.80
2019-02-21T20:37:41.884Z,9.80
2019-02-21T20:40:11.186Z,9.80
2019-02-21T20:42:40.163Z,9.70
2019-02-21T20:45:09.590Z,9.80
2019-02-21T20:47:38.492Z,9.70
2019-02-21T20:50:07.934Z,9.70
2019-02-21T20:52:36.873Z,9.70
2019-02-21T20:55:06.242Z,9.70
2019-02-21T20:57:35.073Z,9.70
2019-02-21T21:00:04.393Z,9.70
2019-02-21T21:02:33.588Z,9.70
2019-02-21T21:05:02.554Z,9.70
2019-02-21T21:07:31.909Z,9.70
2019-02-21T21:10:00.723Z,9.70
2019-02-21T21:12:29.631Z,9.70
2019-02-21T21:14:58.532Z,9.70
2019-02-21T21:17:27.509Z,9.70
2019-02-21T21:19:56.467Z,9.70
2019-02-21T21:22:25.292Z,9.70
2019-02-21T21:24:54.284Z,9.70
2019-02-21T21:27:23.176Z,9.70
2019-02-21T21:29:51.977Z,9.70
2019-02-21T21:32:21.033Z,9.70
2019-02-21T21:34:49.866Z,9.70
2019-02-21T21:37:18.914Z,9.70
2019-02-21T21:39:47.877Z,9.70
2019-02-21T21:42:16.702Z,9.70
2019-02-21T21:44:45.494Z,9.70
2019-02-21T21:47:14.417Z,9.70
2019-02-21T21:49:43.225Z,9.70
2019-02-21T21:52:12.201Z,9.70
2019-02-21T21:54:41.094Z,9.70
2019-02-21T21:57:09.932Z,9.70
2019-02-21T21:59:38.770Z,9.70
2019-02-21T22:02:07.789Z,9.70
2019-02-21T22:04:36.715Z,9.70
2019-02-21T22:07:05.727Z,9.70
2019-02-21T22:09:34.556Z,9.70
2019-02-21T22:12:03.448Z,9.70
2019-02-21T22:14:32.352Z,9.70
2019-02-21T22:17:01.158Z,9.70
2019-02-21T22:19:29.964Z,9.70
2019-02-21T22:21:58.794Z,9.70
2019-02-21T22:24:27.728Z,9.70
2019-02-21T22:26:56.951Z,9.70
2019-02-21T22:29:25.805Z,9.60
2019-02-21T22:31:54.649Z,9.70
2019-02-21T22:34:23.589Z,9.70
2019-02-21T22:36:52.482Z,9.70
2019-02-21T22:39:21.301Z,9.60
2019-02-21T22:41:50.181Z,9.60
2019-02-21T22:44:19.976Z,9.60
2019-02-21T22:46:48.844Z,9.60
2019-02-21T22:49:17.670Z,9.60
2019-02-21T22:51:46.547Z,9.60
2019-02-21T22:54:15.620Z,9.60
2019-02-21T22:56:44.744Z,9.60
2019-02-21T22:59:13.633Z,9.60
2019-02-21T23:01:46.915Z,9.60
2019-02-21T23:04:55.865Z,9.60
2019-02-21T23:07:44.769Z,9.60
2019-02-21T23:10:13.791Z,9.60
2019-02-21T23:12:42.664Z,9.60
2019-02-21T23:15:12.681Z,9.60
2019-02-21T23:17:41.658Z,9.50
2019-02-21T23:20:29.692Z,9.50
2019-02-21T23:22:58.617Z,9.60
2019-02-21T23:25:27.632Z,9.60
2019-02-21T23:27:56.594Z,9.60
2019-02-21T23:30:25.671Z,9.60
2019-02-21T23:32:54.514Z,9.60
2019-02-21T23:35:23.375Z,9.60
2019-02-21T23:37:52.245Z,9.60
2019-02-21T23:40:21.928Z,9.60
2019-02-21T23:42:51.006Z,9.50
2019-02-21T23:45:20.072Z,9.60
2019-02-21T23:47:50.010Z,9.60
2019-02-21T23:50:19.115Z,9.60
2019-02-21T23:52:47.910Z,9.60
2019-02-21T23:55:16.752Z,9.60
2019-02-21T23:57:45.824Z,9.60
